sensor_id;sensor_type;location;lat;lon;timestamp;P1;durP1;ratioP1;P2;durP2;ratioP2
20657;SDS011;10488;50.846;4.078;2024-01-11T00:01:45;36.87;;;18.40;;
20657;SDS011;10488;50.846;4.078;2024-01-11T00:04:11;40.27;;;17.97;;
20657;SDS011;10488;50.846;4.078;2024-01-11T00:06:43;32.60;;;17.80;;
20657;SDS011;10488;50.846;4.078;2024-01-11T00:09:10;45.63;;;18.40;;
20657;SDS011;10488;50.846;4.078;2024-01-11T00:11:35;39.33;;;17.40;;
20657;SDS011;10488;50.846;4.078;2024-01-11T00:14:02;41.73;;;19.67;;
20657;SDS011;10488;50.846;4.078;2024-01-11T00:16:27;38.93;;;18.27;;
20657;SDS011;10488;50.846;4.078;2024-01-11T00:18:53;41.23;;;18.43;;
20657;SDS011;10488;50.846;4.078;2024-01-11T00:21:19;35.20;;;18.37;;
20657;SDS011;10488;50.846;4.078;2024-01-11T00:23:44;35.47;;;17.73;;
20657;SDS011;10488;50.846;4.078;2024-01-11T00:26:13;33.27;;;17.33;;
20657;SDS011;10488;50.846;4.078;2024-01-11T00:28:39;37.33;;;18.33;;
20657;SDS011;10488;50.846;4.078;2024-01-11T00:31:05;42.37;;;18.43;;
20657;SDS011;10488;50.846;4.078;2024-01-11T00:33:31;38.30;;;19.37;;
20657;SDS011;10488;50.846;4.078;2024-01-11T00:35:57;35.33;;;17.03;;
20657;SDS011;10488;50.846;4.078;2024-01-11T00:38:23;38.30;;;18.27;;
20657;SDS011;10488;50.846;4.078;2024-01-11T00:40:49;36.63;;;17.17;;
20657;SDS011;10488;50.846;4.078;2024-01-11T00:43:14;38.93;;;17.53;;
20657;SDS011;10488;50.846;4.078;2024-01-11T00:45:40;37.63;;;18.13;;
20657;SDS011;10488;50.846;4.078;2024-01-11T00:48:06;37.07;;;17.53;;
20657;SDS011;10488;50.846;4.078;2024-01-11T00:50:31;39.53;;;17.97;;
20657;SDS011;10488;50.846;4.078;2024-01-11T00:52:57;40.93;;;17.63;;
20657;SDS011;10488;50.846;4.078;2024-01-11T00:55:22;41.50;;;20.50;;
20657;SDS011;10488;50.846;4.078;2024-01-11T00:57:49;39.93;;;17.00;;
20657;SDS011;10488;50.846;4.078;2024-01-11T01:00:15;36.30;;;16.97;;
20657;SDS011;10488;50.846;4.078;2024-01-11T01:02:41;36.50;;;18.37;;
20657;SDS011;10488;50.846;4.078;2024-01-11T01:05:07;36.27;;;19.33;;
20657;SDS011;10488;50.846;4.078;2024-01-11T01:07:33;40.87;;;19.10;;
20657;SDS011;10488;50.846;4.078;2024-01-11T01:09:59;38.23;;;19.10;;
20657;SDS011;10488;50.846;4.078;2024-01-11T01:12:24;42.07;;;19.50;;
20657;SDS011;10488;50.846;4.078;2024-01-11T01:14:50;43.17;;;20.80;;
20657;SDS011;10488;50.846;4.078;2024-01-11T01:17:16;42.77;;;19.50;;
20657;SDS011;10488;50.846;4.078;2024-01-11T01:19:43;38.93;;;19.93;;
20657;SDS011;10488;50.846;4.078;2024-01-11T01:22:09;40.90;;;20.00;;
20657;SDS011;10488;50.846;4.078;2024-01-11T01:24:34;38.93;;;18.60;;
20657;SDS011;10488;50.846;4.078;2024-01-11T01:27:00;38.90;;;19.07;;
20657;SDS011;10488;50.846;4.078;2024-01-11T01:29:26;38.40;;;18.67;;
20657;SDS011;10488;50.846;4.078;2024-01-11T01:31:52;46.00;;;21.03;;
20657;SDS011;10488;50.846;4.078;2024-01-11T01:34:18;42.80;;;21.73;;
20657;SDS011;10488;50.846;4.078;2024-01-11T01:36:44;40.67;;;20.13;;
20657;SDS011;10488;50.846;4.078;2024-01-11T01:39:09;52.37;;;20.17;;
20657;SDS011;10488;50.846;4.078;2024-01-11T01:41:36;46.47;;;21.07;;
20657;SDS011;10488;50.846;4.078;2024-01-11T01:44:01;43.33;;;20.03;;
20657;SDS011;10488;50.846;4.078;2024-01-11T01:46:27;38.03;;;19.30;;
20657;SDS011;10488;50.846;4.078;2024-01-11T01:48:53;41.67;;;20.07;;
20657;SDS011;10488;50.846;4.078;2024-01-11T01:51:21;47.87;;;21.10;;
20657;SDS011;10488;50.846;4.078;2024-01-11T01:53:48;41.30;;;20.30;;
20657;SDS011;10488;50.846;4.078;2024-01-11T01:56:17;44.20;;;20.23;;
20657;SDS011;10488;50.846;4.078;2024-01-11T01:58:44;41.70;;;19.60;;
20657;SDS011;10488;50.846;4.078;2024-01-11T02:01:10;46.70;;;20.13;;
20657;SDS011;10488;50.846;4.078;2024-01-11T02:03:37;42.10;;;20.70;;
20657;SDS011;10488;50.846;4.078;2024-01-11T02:06:03;51.93;;;21.47;;
20657;SDS011;10488;50.846;4.078;2024-01-11T02:08:31;42.27;;;19.63;;
20657;SDS011;10488;50.846;4.078;2024-01-11T02:10:57;40.07;;;19.97;;
20657;SDS011;10488;50.846;4.078;2024-01-11T02:13:25;43.13;;;19.17;;
20657;SDS011;10488;50.846;4.078;2024-01-11T02:15:51;41.43;;;19.77;;
20657;SDS011;10488;50.846;4.078;2024-01-11T02:18:17;39.90;;;17.87;;
20657;SDS011;10488;50.846;4.078;2024-01-11T02:20:43;38.70;;;19.70;;
20657;SDS011;10488;50.846;4.078;2024-01-11T02:23:11;39.40;;;19.13;;
20657;SDS011;10488;50.846;4.078;2024-01-11T02:25:42;37.70;;;18.23;;
20657;SDS011;10488;50.846;4.078;2024-01-11T02:28:07;42.10;;;19.20;;
20657;SDS011;10488;50.846;4.078;2024-01-11T02:30:33;43.10;;;20.07;;
20657;SDS011;10488;50.846;4.078;2024-01-11T02:32:59;36.20;;;17.63;;
20657;SDS011;10488;50.846;4.078;2024-01-11T02:35:26;37.50;;;18.13;;
20657;SDS011;10488;50.846;4.078;2024-01-11T02:37:52;36.50;;;18.00;;
20657;SDS011;10488;50.846;4.078;2024-01-11T02:40:19;38.83;;;19.60;;
20657;SDS011;10488;50.846;4.078;2024-01-11T02:42:45;42.43;;;18.23;;
20657;SDS011;10488;50.846;4.078;2024-01-11T02:45:11;35.77;;;18.77;;
20657;SDS011;10488;50.846;4.078;2024-01-11T02:47:40;36.70;;;18.50;;
20657;SDS011;10488;50.846;4.078;2024-01-11T02:50:06;41.93;;;19.07;;
20657;SDS011;10488;50.846;4.078;2024-01-11T02:52:33;39.40;;;18.80;;
20657;SDS011;10488;50.846;4.078;2024-01-11T02:54:59;40.83;;;19.17;;
20657;SDS011;10488;50.846;4.078;2024-01-11T02:57:24;36.83;;;17.77;;
20657;SDS011;10488;50.846;4.078;2024-01-11T02:59:51;34.23;;;17.50;;
20657;SDS011;10488;50.846;4.078;2024-01-11T03:02:16;39.27;;;18.67;;
20657;SDS011;10488;50.846;4.078;2024-01-11T03:04:42;39.17;;;18.10;;
20657;SDS011;10488;50.846;4.078;2024-01-11T03:07:08;39.87;;;18.90;;
20657;SDS011;10488;50.846;4.078;2024-01-11T03:09:34;39.37;;;18.13;;
20657;SDS011;10488;50.846;4.078;2024-01-11T03:11:59;41.00;;;19.27;;
20657;SDS011;10488;50.846;4.078;2024-01-11T03:14:25;37.50;;;19.47;;
20657;SDS011;10488;50.846;4.078;2024-01-11T03:16:51;37.40;;;17.90;;
20657;SDS011;10488;50.846;4.078;2024-01-11T03:19:16;40.63;;;18.50;;
20657;SDS011;10488;50.846;4.078;2024-01-11T03:21:45;36.10;;;18.00;;
20657;SDS011;10488;50.846;4.078;2024-01-11T03:24:11;40.10;;;19.50;;
20657;SDS011;10488;50.846;4.078;2024-01-11T03:26:38;37.63;;;18.60;;
20657;SDS011;10488;50.846;4.078;2024-01-11T03:29:03;38.13;;;18.53;;
20657;SDS011;10488;50.846;4.078;2024-01-11T03:31:29;41.23;;;18.57;;
20657;SDS011;10488;50.846;4.078;2024-01-11T03:33:55;39.53;;;18.77;;
20657;SDS011;10488;50.846;4.078;2024-01-11T03:36:22;38.73;;;18.60;;
20657;SDS011;10488;50.846;4.078;2024-01-11T03:38:49;38.30;;;19.90;;
20657;SDS011;10488;50.846;4.078;2024-01-11T03:41:15;39.27;;;18.73;;
20657;SDS011;10488;50.846;4.078;2024-01-11T03:43:41;39.37;;;18.87;;
20657;SDS011;10488;50.846;4.078;2024-01-11T03:46:06;39.80;;;18.17;;
20657;SDS011;10488;50.846;4.078;2024-01-11T03:48:32;40.63;;;19.17;;
20657;SDS011;10488;50.846;4.078;2024-01-11T03:51:00;44.20;;;19.50;;
20657;SDS011;10488;50.846;4.078;2024-01-11T03:53:26;38.53;;;19.53;;
20657;SDS011;10488;50.846;4.078;2024-01-11T03:55:52;38.23;;;19.20;;
20657;SDS011;10488;50.846;4.078;2024-01-11T03:58:17;35.10;;;17.70;;
20657;SDS011;10488;50.846;4.078;2024-01-11T04:00:43;39.77;;;19.03;;
20657;SDS011;10488;50.846;4.078;2024-01-11T04:03:09;43.07;;;20.03;;
20657;SDS011;10488;50.846;4.078;2024-01-11T04:05:34;44.47;;;20.40;;
20657;SDS011;10488;50.846;4.078;2024-01-11T04:08:02;37.53;;;19.83;;
20657;SDS011;10488;50.846;4.078;2024-01-11T04:10:29;36.03;;;17.87;;
20657;SDS011;10488;50.846;4.078;2024-01-11T04:12:55;41.87;;;19.23;;
20657;SDS011;10488;50.846;4.078;2024-01-11T04:15:21;46.07;;;19.27;;
20657;SDS011;10488;50.846;4.078;2024-01-11T04:17:46;42.10;;;19.73;;
20657;SDS011;10488;50.846;4.078;2024-01-11T04:20:12;38.70;;;18.60;;
20657;SDS011;10488;50.846;4.078;2024-01-11T04:22:38;43.10;;;19.43;;
20657;SDS011;10488;50.846;4.078;2024-01-11T04:25:04;40.03;;;18.63;;
20657;SDS011;10488;50.846;4.078;2024-01-11T04:27:30;38.70;;;18.53;;
20657;SDS011;10488;50.846;4.078;2024-01-11T04:29:56;43.00;;;19.33;;
20657;SDS011;10488;50.846;4.078;2024-01-11T04:32:21;40.97;;;19.70;;
20657;SDS011;10488;50.846;4.078;2024-01-11T04:34:47;39.70;;;19.00;;
20657;SDS011;10488;50.846;4.078;2024-01-11T04:37:13;39.60;;;18.97;;
20657;SDS011;10488;50.846;4.078;2024-01-11T04:39:38;37.63;;;19.00;;
20657;SDS011;10488;50.846;4.078;2024-01-11T04:42:04;45.97;;;19.47;;
20657;SDS011;10488;50.846;4.078;2024-01-11T04:44:30;43.80;;;19.37;;
20657;SDS011;10488;50.846;4.078;2024-01-11T04:46:55;38.93;;;18.07;;
20657;SDS011;10488;50.846;4.078;2024-01-11T04:49:21;39.37;;;19.13;;
20657;SDS011;10488;50.846;4.078;2024-01-11T04:51:46;39.93;;;19.47;;
20657;SDS011;10488;50.846;4.078;2024-01-11T04:54:12;39.23;;;18.10;;
20657;SDS011;10488;50.846;4.078;2024-01-11T04:56:38;43.83;;;17.57;;
20657;SDS011;10488;50.846;4.078;2024-01-11T04:59:03;44.27;;;19.63;;
20657;SDS011;10488;50.846;4.078;2024-01-11T05:01:29;47.40;;;19.93;;
20657;SDS011;10488;50.846;4.078;2024-01-11T05:03:55;39.93;;;20.53;;
20657;SDS011;10488;50.846;4.078;2024-01-11T05:06:21;44.33;;;20.10;;
20657;SDS011;10488;50.846;4.078;2024-01-11T05:08:47;40.63;;;20.33;;
20657;SDS011;10488;50.846;4.078;2024-01-11T05:11:20;40.23;;;19.70;;
20657;SDS011;10488;50.846;4.078;2024-01-11T05:13:47;41.93;;;19.23;;
20657;SDS011;10488;50.846;4.078;2024-01-11T05:16:20;40.73;;;19.23;;
20657;SDS011;10488;50.846;4.078;2024-01-11T05:18:47;38.60;;;19.80;;
20657;SDS011;10488;50.846;4.078;2024-01-11T05:21:13;46.87;;;20.60;;
20657;SDS011;10488;50.846;4.078;2024-01-11T05:23:40;38.73;;;18.80;;
20657;SDS011;10488;50.846;4.078;2024-01-11T05:26:06;42.70;;;19.67;;
20657;SDS011;10488;50.846;4.078;2024-01-11T05:28:33;35.53;;;19.03;;
20657;SDS011;10488;50.846;4.078;2024-01-11T05:30:58;40.93;;;19.03;;
20657;SDS011;10488;50.846;4.078;2024-01-11T05:33:24;38.53;;;18.93;;
20657;SDS011;10488;50.846;4.078;2024-01-11T05:35:50;40.93;;;18.83;;
20657;SDS011;10488;50.846;4.078;2024-01-11T05:38:15;38.87;;;18.80;;
20657;SDS011;10488;50.846;4.078;2024-01-11T05:40:41;38.77;;;19.13;;
20657;SDS011;10488;50.846;4.078;2024-01-11T05:43:07;36.60;;;18.70;;
20657;SDS011;10488;50.846;4.078;2024-01-11T05:45:32;38.73;;;19.33;;
20657;SDS011;10488;50.846;4.078;2024-01-11T05:47:59;39.83;;;19.43;;
20657;SDS011;10488;50.846;4.078;2024-01-11T05:50:24;42.17;;;20.97;;
20657;SDS011;10488;50.846;4.078;2024-01-11T05:52:51;43.37;;;19.90;;
20657;SDS011;10488;50.846;4.078;2024-01-11T05:55:19;36.27;;;18.77;;
20657;SDS011;10488;50.846;4.078;2024-01-11T05:57:44;35.33;;;17.80;;
20657;SDS011;10488;50.846;4.078;2024-01-11T06:00:10;44.03;;;20.83;;
20657;SDS011;10488;50.846;4.078;2024-01-11T06:02:37;42.07;;;20.20;;
20657;SDS011;10488;50.846;4.078;2024-01-11T06:05:02;42.00;;;20.50;;
20657;SDS011;10488;50.846;4.078;2024-01-11T06:07:28;42.77;;;20.87;;
20657;SDS011;10488;50.846;4.078;2024-01-11T06:09:54;41.77;;;20.57;;
20657;SDS011;10488;50.846;4.078;2024-01-11T06:12:20;48.53;;;21.53;;
20657;SDS011;10488;50.846;4.078;2024-01-11T06:14:45;47.40;;;21.73;;
20657;SDS011;10488;50.846;4.078;2024-01-11T06:17:11;48.53;;;22.53;;
20657;SDS011;10488;50.846;4.078;2024-01-11T06:19:37;45.37;;;21.67;;
20657;SDS011;10488;50.846;4.078;2024-01-11T06:22:05;47.73;;;21.53;;
20657;SDS011;10488;50.846;4.078;2024-01-11T06:24:31;46.07;;;21.30;;
20657;SDS011;10488;50.846;4.078;2024-01-11T06:26:57;46.10;;;21.33;;
20657;SDS011;10488;50.846;4.078;2024-01-11T06:29:22;45.27;;;22.63;;
20657;SDS011;10488;50.846;4.078;2024-01-11T06:31:48;41.50;;;20.87;;
20657;SDS011;10488;50.846;4.078;2024-01-11T06:34:14;48.70;;;21.73;;
20657;SDS011;10488;50.846;4.078;2024-01-11T06:36:40;45.10;;;21.43;;
20657;SDS011;10488;50.846;4.078;2024-01-11T06:39:05;46.40;;;22.07;;
20657;SDS011;10488;50.846;4.078;2024-01-11T06:41:31;48.70;;;21.57;;
20657;SDS011;10488;50.846;4.078;2024-01-11T06:43:56;44.23;;;21.17;;
20657;SDS011;10488;50.846;4.078;2024-01-11T06:46:22;50.10;;;21.43;;
20657;SDS011;10488;50.846;4.078;2024-01-11T06:48:48;47.50;;;22.80;;
20657;SDS011;10488;50.846;4.078;2024-01-11T06:51:20;44.20;;;20.80;;
20657;SDS011;10488;50.846;4.078;2024-01-11T06:53:46;44.60;;;20.23;;
20657;SDS011;10488;50.846;4.078;2024-01-11T06:56:16;44.60;;;20.67;;
20657;SDS011;10488;50.846;4.078;2024-01-11T06:58:44;44.67;;;21.40;;
20657;SDS011;10488;50.846;4.078;2024-01-11T07:01:10;51.17;;;22.33;;
20657;SDS011;10488;50.846;4.078;2024-01-11T07:03:37;47.07;;;20.37;;
20657;SDS011;10488;50.846;4.078;2024-01-11T07:06:03;48.03;;;21.50;;
20657;SDS011;10488;50.846;4.078;2024-01-11T07:08:29;45.43;;;20.87;;
20657;SDS011;10488;50.846;4.078;2024-01-11T07:10:55;41.27;;;19.77;;
20657;SDS011;10488;50.846;4.078;2024-01-11T07:13:21;43.67;;;21.30;;
20657;SDS011;10488;50.846;4.078;2024-01-11T07:15:47;47.23;;;20.63;;
20657;SDS011;10488;50.846;4.078;2024-01-11T07:18:13;46.07;;;21.60;;
20657;SDS011;10488;50.846;4.078;2024-01-11T07:20:39;46.57;;;20.63;;
20657;SDS011;10488;50.846;4.078;2024-01-11T07:23:05;39.07;;;20.10;;
20657;SDS011;10488;50.846;4.078;2024-01-11T07:25:31;43.27;;;20.77;;
20657;SDS011;10488;50.846;4.078;2024-01-11T07:27:57;51.63;;;21.63;;
20657;SDS011;10488;50.846;4.078;2024-01-11T07:30:23;44.23;;;19.50;;
20657;SDS011;10488;50.846;4.078;2024-01-11T07:32:49;53.23;;;21.70;;
20657;SDS011;10488;50.846;4.078;2024-01-11T07:35:14;44.37;;;20.93;;
20657;SDS011;10488;50.846;4.078;2024-01-11T07:37:40;43.90;;;20.63;;
20657;SDS011;10488;50.846;4.078;2024-01-11T07:40:06;51.57;;;22.10;;
20657;SDS011;10488;50.846;4.078;2024-01-11T07:42:39;43.50;;;21.57;;
20657;SDS011;10488;50.846;4.078;2024-01-11T07:45:06;46.67;;;20.10;;
20657;SDS011;10488;50.846;4.078;2024-01-11T07:47:35;50.07;;;22.57;;
20657;SDS011;10488;50.846;4.078;2024-01-11T07:50:03;48.90;;;21.87;;
20657;SDS011;10488;50.846;4.078;2024-01-11T07:52:35;52.33;;;21.87;;
20657;SDS011;10488;50.846;4.078;2024-01-11T07:55:02;48.53;;;22.07;;
20657;SDS011;10488;50.846;4.078;2024-01-11T07:57:34;49.70;;;21.83;;
20657;SDS011;10488;50.846;4.078;2024-01-11T08:00:00;45.00;;;21.20;;
20657;SDS011;10488;50.846;4.078;2024-01-11T08:02:27;52.17;;;20.90;;
20657;SDS011;10488;50.846;4.078;2024-01-11T08:04:53;49.00;;;21.73;;
20657;SDS011;10488;50.846;4.078;2024-01-11T08:07:19;42.83;;;20.63;;
20657;SDS011;10488;50.846;4.078;2024-01-11T08:09:45;46.80;;;21.60;;
20657;SDS011;10488;50.846;4.078;2024-01-11T08:12:11;43.13;;;20.60;;
20657;SDS011;10488;50.846;4.078;2024-01-11T08:14:38;49.87;;;23.67;;
20657;SDS011;10488;50.846;4.078;2024-01-11T08:17:04;45.07;;;21.93;;
20657;SDS011;10488;50.846;4.078;2024-01-11T08:19:30;47.93;;;22.47;;
20657;SDS011;10488;50.846;4.078;2024-01-11T08:21:57;46.73;;;22.53;;
20657;SDS011;10488;50.846;4.078;2024-01-11T08:24:23;44.60;;;22.10;;
20657;SDS011;10488;50.846;4.078;2024-01-11T08:26:50;46.87;;;23.13;;
20657;SDS011;10488;50.846;4.078;2024-01-11T08:29:16;51.17;;;23.53;;
20657;SDS011;10488;50.846;4.078;2024-01-11T08:31:44;50.17;;;22.57;;
20657;SDS011;10488;50.846;4.078;2024-01-11T08:34:09;53.53;;;23.33;;
20657;SDS011;10488;50.846;4.078;2024-01-11T08:36:35;50.40;;;22.50;;
20657;SDS011;10488;50.846;4.078;2024-01-11T08:39:03;49.33;;;23.57;;
20657;SDS011;10488;50.846;4.078;2024-01-11T08:41:33;47.97;;;22.20;;
20657;SDS011;10488;50.846;4.078;2024-01-11T08:44:00;47.93;;;21.53;;
20657;SDS011;10488;50.846;4.078;2024-01-11T08:46:27;49.40;;;22.93;;
20657;SDS011;10488;50.846;4.078;2024-01-11T08:48:53;46.53;;;21.17;;
20657;SDS011;10488;50.846;4.078;2024-01-11T08:51:21;49.80;;;23.37;;
20657;SDS011;10488;50.846;4.078;2024-01-11T08:53:46;52.00;;;23.77;;
20657;SDS011;10488;50.846;4.078;2024-01-11T08:56:12;49.50;;;24.43;;
20657;SDS011;10488;50.846;4.078;2024-01-11T08:58:41;48.13;;;22.20;;
20657;SDS011;10488;50.846;4.078;2024-01-11T09:01:07;48.13;;;23.10;;
20657;SDS011;10488;50.846;4.078;2024-01-11T09:03:35;49.27;;;22.50;;
20657;SDS011;10488;50.846;4.078;2024-01-11T09:06:04;57.93;;;25.27;;
20657;SDS011;10488;50.846;4.078;2024-01-11T09:08:31;56.77;;;23.90;;
20657;SDS011;10488;50.846;4.078;2024-01-11T09:10:56;49.33;;;21.80;;
20657;SDS011;10488;50.846;4.078;2024-01-11T09:13:23;48.53;;;24.80;;
20657;SDS011;10488;50.846;4.078;2024-01-11T09:15:51;51.53;;;23.87;;
20657;SDS011;10488;50.846;4.078;2024-01-11T09:18:17;50.60;;;24.40;;
20657;SDS011;10488;50.846;4.078;2024-01-11T09:20:43;45.30;;;22.33;;
20657;SDS011;10488;50.846;4.078;2024-01-11T09:23:09;47.13;;;24.03;;
20657;SDS011;10488;50.846;4.078;2024-01-11T09:25:34;48.77;;;21.87;;
20657;SDS011;10488;50.846;4.078;2024-01-11T09:28:00;58.00;;;25.10;;
20657;SDS011;10488;50.846;4.078;2024-01-11T09:30:26;54.23;;;24.30;;
20657;SDS011;10488;50.846;4.078;2024-01-11T09:32:52;52.50;;;24.50;;
20657;SDS011;10488;50.846;4.078;2024-01-11T09:35:20;46.30;;;23.00;;
20657;SDS011;10488;50.846;4.078;2024-01-11T09:37:46;47.93;;;24.43;;
20657;SDS011;10488;50.846;4.078;2024-01-11T09:40:12;53.07;;;23.60;;
20657;SDS011;10488;50.846;4.078;2024-01-11T09:42:38;52.57;;;23.30;;
20657;SDS011;10488;50.846;4.078;2024-01-11T09:45:07;46.23;;;22.83;;
20657;SDS011;10488;50.846;4.078;2024-01-11T09:47:36;56.27;;;25.17;;
20657;SDS011;10488;50.846;4.078;2024-01-11T09:50:05;47.73;;;23.57;;
20657;SDS011;10488;50.846;4.078;2024-01-11T09:52:31;44.70;;;23.30;;
20657;SDS011;10488;50.846;4.078;2024-01-11T09:54:58;48.47;;;23.30;;
20657;SDS011;10488;50.846;4.078;2024-01-11T09:57:31;51.27;;;22.60;;
20657;SDS011;10488;50.846;4.078;2024-01-11T09:59:59;46.43;;;22.50;;
20657;SDS011;10488;50.846;4.078;2024-01-11T10:02:32;48.73;;;24.43;;
20657;SDS011;10488;50.846;4.078;2024-01-11T10:04:58;55.43;;;24.57;;
20657;SDS011;10488;50.846;4.078;2024-01-11T10:07:24;50.33;;;24.33;;
20657;SDS011;10488;50.846;4.078;2024-01-11T10:09:50;53.17;;;24.50;;
20657;SDS011;10488;50.846;4.078;2024-01-11T10:12:20;46.30;;;23.87;;
20657;SDS011;10488;50.846;4.078;2024-01-11T10:14:49;49.83;;;24.33;;
20657;SDS011;10488;50.846;4.078;2024-01-11T10:17:16;46.23;;;22.80;;
20657;SDS011;10488;50.846;4.078;2024-01-11T10:19:42;45.40;;;22.23;;
20657;SDS011;10488;50.846;4.078;2024-01-11T10:22:08;49.77;;;23.53;;
20657;SDS011;10488;50.846;4.078;2024-01-11T10:24:37;43.60;;;20.10;;
20657;SDS011;10488;50.846;4.078;2024-01-11T10:27:04;46.57;;;23.53;;
20657;SDS011;10488;50.846;4.078;2024-01-11T10:29:31;54.13;;;24.83;;
20657;SDS011;10488;50.846;4.078;2024-01-11T10:31:57;47.50;;;24.50;;
20657;SDS011;10488;50.846;4.078;2024-01-11T10:34:23;48.20;;;23.80;;
20657;SDS011;10488;50.846;4.078;2024-01-11T10:36:50;51.70;;;24.20;;
20657;SDS011;10488;50.846;4.078;2024-01-11T10:39:16;45.70;;;23.30;;
20657;SDS011;10488;50.846;4.078;2024-01-11T10:41:47;52.73;;;24.53;;
20657;SDS011;10488;50.846;4.078;2024-01-11T10:44:19;46.33;;;24.90;;
20657;SDS011;10488;50.846;4.078;2024-01-11T10:46:49;48.57;;;24.37;;
20657;SDS011;10488;50.846;4.078;2024-01-11T10:49:17;47.33;;;22.83;;
20657;SDS011;10488;50.846;4.078;2024-01-11T10:51:52;46.27;;;22.77;;
20657;SDS011;10488;50.846;4.078;2024-01-11T10:54:24;45.10;;;22.20;;
20657;SDS011;10488;50.846;4.078;2024-01-11T10:56:51;45.63;;;22.83;;
20657;SDS011;10488;50.846;4.078;2024-01-11T10:59:18;41.20;;;23.43;;
20657;SDS011;10488;50.846;4.078;2024-01-11T11:01:49;44.23;;;22.00;;
20657;SDS011;10488;50.846;4.078;2024-01-11T11:04:19;43.57;;;22.67;;
20657;SDS011;10488;50.846;4.078;2024-01-11T11:06:49;45.07;;;22.97;;
20657;SDS011;10488;50.846;4.078;2024-01-11T11:09:19;46.87;;;24.33;;
20657;SDS011;10488;50.846;4.078;2024-01-11T11:11:46;43.83;;;23.83;;
20657;SDS011;10488;50.846;4.078;2024-01-11T11:14:15;47.03;;;24.47;;
20657;SDS011;10488;50.846;4.078;2024-01-11T11:16:42;44.27;;;23.73;;
20657;SDS011;10488;50.846;4.078;2024-01-11T11:19:10;43.67;;;22.10;;
20657;SDS011;10488;50.846;4.078;2024-01-11T11:21:44;45.23;;;22.00;;
20657;SDS011;10488;50.846;4.078;2024-01-11T11:24:10;43.57;;;23.03;;
20657;SDS011;10488;50.846;4.078;2024-01-11T11:26:37;46.10;;;23.10;;
20657;SDS011;10488;50.846;4.078;2024-01-11T11:29:03;48.87;;;23.10;;
20657;SDS011;10488;50.846;4.078;2024-01-11T11:31:37;43.63;;;21.43;;
20657;SDS011;10488;50.846;4.078;2024-01-11T11:34:06;48.67;;;23.53;;
20657;SDS011;10488;50.846;4.078;2024-01-11T11:36:36;41.23;;;21.83;;
20657;SDS011;10488;50.846;4.078;2024-01-11T11:39:02;43.83;;;22.03;;
20657;SDS011;10488;50.846;4.078;2024-01-11T11:41:29;48.40;;;22.53;;
20657;SDS011;10488;50.846;4.078;2024-01-11T11:44:00;39.47;;;20.33;;
20657;SDS011;10488;50.846;4.078;2024-01-11T11:46:29;43.00;;;21.13;;
20657;SDS011;10488;50.846;4.078;2024-01-11T11:48:56;41.33;;;22.27;;
20657;SDS011;10488;50.846;4.078;2024-01-11T11:51:23;45.00;;;22.57;;
20657;SDS011;10488;50.846;4.078;2024-01-11T11:53:49;41.77;;;20.47;;
20657;SDS011;10488;50.846;4.078;2024-01-11T11:56:20;37.10;;;21.30;;
20657;SDS011;10488;50.846;4.078;2024-01-11T11:58:47;44.23;;;20.40;;
20657;SDS011;10488;50.846;4.078;2024-01-11T12:01:14;37.30;;;20.77;;
20657;SDS011;10488;50.846;4.078;2024-01-11T12:03:42;36.53;;;20.20;;
20657;SDS011;10488;50.846;4.078;2024-01-11T12:06:18;38.57;;;20.83;;
20657;SDS011;10488;50.846;4.078;2024-01-11T12:08:46;41.83;;;21.50;;
20657;SDS011;10488;50.846;4.078;2024-01-11T12:11:13;39.80;;;18.67;;
20657;SDS011;10488;50.846;4.078;2024-01-11T12:13:43;40.00;;;19.70;;
20657;SDS011;10488;50.846;4.078;2024-01-11T12:16:09;44.93;;;19.33;;
20657;SDS011;10488;50.846;4.078;2024-01-11T12:18:36;39.57;;;18.50;;
20657;SDS011;10488;50.846;4.078;2024-01-11T12:21:01;36.93;;;20.20;;
20657;SDS011;10488;50.846;4.078;2024-01-11T12:23:27;45.90;;;20.50;;
20657;SDS011;10488;50.846;4.078;2024-01-11T12:25:58;40.40;;;20.57;;
20657;SDS011;10488;50.846;4.078;2024-01-11T12:28:25;36.23;;;20.27;;
20657;SDS011;10488;50.846;4.078;2024-01-11T12:30:51;39.83;;;18.77;;
20657;SDS011;10488;50.846;4.078;2024-01-11T12:33:17;34.70;;;19.23;;
20657;SDS011;10488;50.846;4.078;2024-01-11T12:35:43;34.67;;;18.70;;
20657;SDS011;10488;50.846;4.078;2024-01-11T12:38:10;34.67;;;19.37;;
20657;SDS011;10488;50.846;4.078;2024-01-11T12:40:36;38.80;;;19.33;;
20657;SDS011;10488;50.846;4.078;2024-01-11T12:43:02;35.47;;;17.50;;
20657;SDS011;10488;50.846;4.078;2024-01-11T12:45:29;35.43;;;18.07;;
20657;SDS011;10488;50.846;4.078;2024-01-11T12:47:57;36.87;;;19.57;;
20657;SDS011;10488;50.846;4.078;2024-01-11T12:50:25;38.03;;;18.77;;
20657;SDS011;10488;50.846;4.078;2024-01-11T12:53:10;42.47;;;18.63;;
20657;SDS011;10488;50.846;4.078;2024-01-11T12:55:46;38.10;;;17.47;;
20657;SDS011;10488;50.846;4.078;2024-01-11T12:58:12;38.53;;;18.57;;
20657;SDS011;10488;50.846;4.078;2024-01-11T13:00:43;35.60;;;19.13;;
20657;SDS011;10488;50.846;4.078;2024-01-11T13:03:09;36.27;;;20.03;;
20657;SDS011;10488;50.846;4.078;2024-01-11T13:05:35;40.13;;;21.73;;
20657;SDS011;10488;50.846;4.078;2024-01-11T13:08:02;40.20;;;20.20;;
20657;SDS011;10488;50.846;4.078;2024-01-11T13:10:28;41.90;;;20.37;;
20657;SDS011;10488;50.846;4.078;2024-01-11T13:12:54;38.33;;;20.33;;
20657;SDS011;10488;50.846;4.078;2024-01-11T13:15:23;38.13;;;21.03;;
20657;SDS011;10488;50.846;4.078;2024-01-11T13:17:49;38.27;;;20.37;;
20657;SDS011;10488;50.846;4.078;2024-01-11T13:20:15;39.30;;;20.43;;
20657;SDS011;10488;50.846;4.078;2024-01-11T13:22:41;41.23;;;20.27;;
20657;SDS011;10488;50.846;4.078;2024-01-11T13:25:07;40.17;;;19.73;;
20657;SDS011;10488;50.846;4.078;2024-01-11T13:27:32;41.47;;;21.33;;
20657;SDS011;10488;50.846;4.078;2024-01-11T13:29:58;42.13;;;22.57;;
20657;SDS011;10488;50.846;4.078;2024-01-11T13:32:24;43.10;;;20.83;;
20657;SDS011;10488;50.846;4.078;2024-01-11T13:34:49;45.50;;;23.10;;
20657;SDS011;10488;50.846;4.078;2024-01-11T13:37:18;42.20;;;22.73;;
20657;SDS011;10488;50.846;4.078;2024-01-11T13:39:44;44.87;;;25.63;;
20657;SDS011;10488;50.846;4.078;2024-01-11T13:42:09;48.40;;;24.80;;
20657;SDS011;10488;50.846;4.078;2024-01-11T13:44:36;50.77;;;24.20;;
20657;SDS011;10488;50.846;4.078;2024-01-11T13:47:03;41.23;;;21.60;;
20657;SDS011;10488;50.846;4.078;2024-01-11T13:49:29;77.60;;;36.73;;
20657;SDS011;10488;50.846;4.078;2024-01-11T13:51:54;38.77;;;20.40;;
20657;SDS011;10488;50.846;4.078;2024-01-11T13:54:20;45.60;;;24.97;;
20657;SDS011;10488;50.846;4.078;2024-01-11T13:56:47;40.73;;;23.00;;
20657;SDS011;10488;50.846;4.078;2024-01-11T13:59:12;42.87;;;21.10;;
20657;SDS011;10488;50.846;4.078;2024-01-11T14:01:39;34.53;;;20.03;;
20657;SDS011;10488;50.846;4.078;2024-01-11T14:04:05;39.33;;;20.97;;
20657;SDS011;10488;50.846;4.078;2024-01-11T14:06:30;44.17;;;22.60;;
20657;SDS011;10488;50.846;4.078;2024-01-11T14:08:56;42.73;;;21.13;;
20657;SDS011;10488;50.846;4.078;2024-01-11T14:11:22;42.47;;;21.83;;
20657;SDS011;10488;50.846;4.078;2024-01-11T14:13:48;37.93;;;18.90;;
20657;SDS011;10488;50.846;4.078;2024-01-11T14:16:13;35.90;;;20.37;;
20657;SDS011;10488;50.846;4.078;2024-01-11T14:18:41;38.50;;;19.13;;